createdAt,value
2024-03-08T00:00:18.547Z,987.77
2024-03-08T00:01:18.466Z,987.76
2024-03-08T00:02:18.485Z,987.77
2024-03-08T00:03:18.528Z,987.77
2024-03-08T00:04:18.433Z,987.76
2024-03-08T00:05:18.438Z,987.75
2024-03-08T00:06:18.464Z,987.74
2024-03-08T00:07:18.448Z,987.73
2024-03-08T00:08:18.403Z,987.72
2024-03-08T00:09:18.390Z,987.71
2024-03-08T00:10:18.544Z,987.70
2024-03-08T00:11:18.496Z,987.70
2024-03-08T00:12:18.455Z,987.69
2024-03-08T00:13:18.361Z,987.68
2024-03-08T00:14:18.328Z,987.66
2024-03-08T00:15:19.557Z,987.65
2024-03-08T00:16:18.305Z,987.65
2024-03-08T00:17:18.321Z,987.63
2024-03-08T00:18:18.386Z,987.63
2024-03-08T00:19:18.304Z,987.61
2024-03-08T00:20:18.274Z,987.61
2024-03-08T00:21:18.248Z,987.61
2024-03-08T00:22:18.262Z,987.61
2024-03-08T00:23:18.250Z,987.61
2024-03-08T00:24:18.244Z,987.61
2024-03-08T00:25:18.230Z,987.60
2024-03-08T00:26:18.196Z,987.62
2024-03-08T00:27:18.210Z,987.62
2024-03-08T00:28:18.242Z,987.62
2024-03-08T00:29:18.210Z,987.62
2024-03-08T00:30:18.256Z,987.62
2024-03-08T00:31:18.168Z,987.61
2024-03-08T00:32:18.169Z,987.61
2024-03-08T00:33:18.216Z,987.61
2024-03-08T00:34:18.139Z,987.61
2024-03-08T00:35:18.129Z,987.60
2024-03-08T00:36:18.102Z,987.60
2024-03-08T00:37:18.094Z,987.60
2024-03-08T00:38:18.082Z,987.60
2024-03-08T00:39:18.088Z,987.61
2024-03-08T00:40:18.067Z,987.59
2024-03-08T00:41:18.068Z,987.58
2024-03-08T00:42:18.051Z,987.58
2024-03-08T00:43:18.058Z,987.57
2024-03-08T00:44:18.043Z,987.58
2024-03-08T00:45:18.074Z,987.56
2024-03-08T00:46:17.992Z,987.56
2024-03-08T00:47:18.001Z,987.54
2024-03-08T00:48:18.031Z,987.52
2024-03-08T00:49:17.997Z,987.51
2024-03-08T00:50:17.957Z,987.52
2024-03-08T00:51:17.952Z,987.51
2024-03-08T00:52:17.939Z,987.50
2024-03-08T00:53:17.994Z,987.50
2024-03-08T00:54:17.948Z,987.47
2024-03-08T00:55:17.920Z,987.47
2024-03-08T00:56:17.909Z,987.44
2024-03-08T00:57:17.907Z,987.43
2024-03-08T00:58:17.872Z,987.42
2024-03-08T00:59:17.896Z,987.41
2024-03-08T01:00:17.909Z,987.40
2024-03-08T01:01:17.902Z,987.39
2024-03-08T01:02:17.836Z,987.39
2024-03-08T01:03:17.871Z,987.38
2024-03-08T01:04:17.829Z,987.37
2024-03-08T01:05:18.131Z,987.36
2024-03-08T01:06:17.832Z,987.37
2024-03-08T01:07:17.809Z,987.37
2024-03-08T01:08:17.782Z,987.35
2024-03-08T01:09:17.834Z,987.34
2024-03-08T01:10:17.777Z,987.34
2024-03-08T01:11:17.769Z,987.31
2024-03-08T01:12:17.883Z,987.28
2024-03-08T01:13:17.723Z,987.27
2024-03-08T01:14:17.747Z,987.27
2024-03-08T01:15:17.753Z,987.27
2024-03-08T01:16:17.717Z,987.27
2024-03-08T01:17:17.744Z,987.25
2024-03-08T01:18:17.829Z,987.24
2024-03-08T01:19:17.712Z,987.21
2024-03-08T01:20:17.655Z,987.21
2024-03-08T01:21:17.700Z,987.20
2024-03-08T01:22:17.653Z,987.18
2024-03-08T01:23:17.624Z,987.18
2024-03-08T01:24:17.694Z,987.17
2024-03-08T01:25:17.634Z,987.15
2024-03-08T01:26:17.606Z,987.14
2024-03-08T01:27:17.609Z,987.13
2024-03-08T01:28:17.575Z,987.11
2024-03-08T01:29:17.596Z,987.09
2024-03-08T01:30:17.618Z,987.08
2024-03-08T01:31:17.543Z,987.06
2024-03-08T01:32:17.556Z,987.05
2024-03-08T01:33:17.649Z,987.04
2024-03-08T01:34:17.537Z,987.03
2024-03-08T01:35:17.555Z,987.01
2024-03-08T01:36:17.536Z,986.98
2024-03-08T01:37:17.516Z,986.98
2024-03-08T01:38:17.483Z,986.98
2024-03-08T01:39:17.496Z,986.97
2024-03-08T01:40:17.479Z,986.95
2024-03-08T01:41:17.474Z,986.94
2024-03-08T01:42:17.483Z,986.93
2024-03-08T01:43:17.434Z,986.95
2024-03-08T01:44:17.429Z,986.94
2024-03-08T01:45:17.444Z,986.95
2024-03-08T01:46:17.417Z,986.95
2024-03-08T01:47:17.417Z,986.94
2024-03-08T01:48:17.421Z,986.92
2024-03-08T01:49:17.359Z,986.90
2024-03-08T01:50:17.353Z,986.89
2024-03-08T01:51:17.401Z,986.88
2024-03-08T01:52:17.348Z,986.89
2024-03-08T01:53:17.339Z,986.87
2024-03-08T01:54:17.339Z,986.85
2024-03-08T01:55:17.306Z,986.85
2024-03-08T01:56:17.313Z,986.82
2024-03-08T01:57:17.388Z,986.80
2024-03-08T01:58:17.268Z,986.79
2024-03-08T01:59:17.248Z,986.78
2024-03-08T02:00:17.310Z,986.76
2024-03-08T02:01:17.325Z,986.74
2024-03-08T02:02:17.237Z,986.72
2024-03-08T02:03:17.299Z,986.71
2024-03-08T02:04:17.225Z,986.71
2024-03-08T02:05:17.204Z,986.70
2024-03-08T02:06:17.283Z,986.70
2024-03-08T02:07:17.187Z,986.68
2024-03-08T02:08:17.199Z,986.67
2024-03-08T02:09:17.196Z,986.66
2024-03-08T02:10:17.170Z,986.65
2024-03-08T02:11:17.371Z,986.64
2024-03-08T02:12:17.239Z,986.62
2024-03-08T02:13:17.113Z,986.60
2024-03-08T02:14:17.116Z,986.59
2024-03-08T02:15:17.133Z,986.59
2024-03-08T02:16:17.090Z,986.60
2024-03-08T02:17:17.073Z,986.59
2024-03-08T02:18:17.182Z,986.59
2024-03-08T02:19:17.073Z,986.60
2024-03-08T02:20:17.044Z,986.60
2024-03-08T02:21:17.053Z,986.58
2024-03-08T02:22:17.112Z,986.56
2024-03-08T02:23:17.023Z,986.55
2024-03-08T02:24:17.082Z,986.56
2024-03-08T02:25:16.984Z,986.56
2024-03-08T02:26:16.985Z,986.56
2024-03-08T02:27:17.010Z,986.54
2024-03-08T02:28:16.965Z,986.53
2024-03-08T02:29:16.961Z,986.52
2024-03-08T02:30:17.072Z,986.52
2024-03-08T02:31:16.918Z,986.50
2024-03-08T02:32:16.920Z,986.48
2024-03-08T02:33:16.974Z,986.47
2024-03-08T02:34:16.899Z,986.45
2024-03-08T02:35:16.921Z,986.45
2024-03-08T02:36:16.929Z,986.44
2024-03-08T02:37:16.881Z,986.43
2024-03-08T02:38:16.858Z,986.43
2024-03-08T02:39:16.879Z,986.43
2024-03-08T02:40:16.845Z,986.43
2024-03-08T02:41:16.860Z,986.42
2024-03-08T02:42:16.846Z,986.42
2024-03-08T02:43:16.837Z,986.41
2024-03-08T02:44:16.799Z,986.42
2024-03-08T02:45:16.886Z,986.41
2024-03-08T02:46:16.785Z,986.41
2024-03-08T02:47:16.777Z,986.41
2024-03-08T02:48:16.832Z,986.41
2024-03-08T02:49:16.739Z,986.42
2024-03-08T02:50:16.759Z,986.42
2024-03-08T02:51:16.741Z,986.41
2024-03-08T02:52:16.731Z,986.40
2024-03-08T02:53:16.712Z,986.42
2024-03-08T02:54:16.741Z,986.41
2024-03-08T02:55:16.770Z,986.41
2024-03-08T02:56:16.693Z,986.40
2024-03-08T02:57:16.724Z,986.39
2024-03-08T02:58:16.669Z,986.37
2024-03-08T02:59:16.642Z,986.37
2024-03-08T03:00:16.751Z,986.37
2024-03-08T03:01:16.721Z,986.38
2024-03-08T03:02:16.622Z,986.36
2024-03-08T03:03:16.694Z,986.36
2024-03-08T03:04:16.590Z,986.36
2024-03-08T03:05:16.604Z,986.36
2024-03-08T03:06:16.650Z,986.36
2024-03-08T03:07:16.578Z,986.37
2024-03-08T03:08:16.572Z,986.36
2024-03-08T03:09:16.591Z,986.35
2024-03-08T03:10:16.574Z,986.33
2024-03-08T03:11:16.551Z,986.32
2024-03-08T03:12:16.702Z,986.31
2024-03-08T03:13:16.524Z,986.32
2024-03-08T03:14:16.493Z,986.30
2024-03-08T03:15:16.504Z,986.28
2024-03-08T03:16:16.492Z,986.26
2024-03-08T03:17:16.502Z,986.24
2024-03-08T03:18:16.503Z,986.23
2024-03-08T03:19:16.451Z,986.22
2024-03-08T03:20:16.440Z,986.21
2024-03-08T03:21:16.549Z,986.21
2024-03-08T03:22:16.432Z,986.20
2024-03-08T03:23:17.071Z,986.19
2024-03-08T03:24:16.469Z,986.19
2024-03-08T03:25:16.391Z,986.19
2024-03-08T03:26:16.371Z,986.19
2024-03-08T03:27:16.547Z,986.18
2024-03-08T03:28:16.408Z,986.19
2024-03-08T03:29:16.344Z,986.19
2024-03-08T03:30:16.360Z,986.20
2024-03-08T03:31:16.314Z,986.19
2024-03-08T03:32:16.331Z,986.19
2024-03-08T03:33:16.863Z,986.18
2024-03-08T03:34:16.288Z,986.18
2024-03-08T03:35:16.302Z,986.17
2024-03-08T03:36:16.306Z,986.17
2024-03-08T03:37:16.268Z,986.16
2024-03-08T03:38:16.239Z,986.14
2024-03-08T03:39:16.271Z,986.15
2024-03-08T03:40:16.228Z,986.14
2024-03-08T03:41:16.210Z,986.12
2024-03-08T03:42:16.263Z,986.12
2024-03-08T03:43:16.181Z,986.14
2024-03-08T03:44:16.202Z,986.13
2024-03-08T03:45:16.228Z,986.13
2024-03-08T03:46:16.171Z,986.12
2024-03-08T03:47:16.180Z,986.11
2024-03-08T03:48:16.198Z,986.09
2024-03-08T03:49:16.125Z,986.08
2024-03-08T03:50:16.123Z,986.07
2024-03-08T03:51:16.198Z,986.07
2024-03-08T03:52:16.099Z,986.06
2024-03-08T03:53:16.132Z,986.04
2024-03-08T03:54:16.109Z,986.02
2024-03-08T03:55:16.095Z,986.02
2024-03-08T03:56:16.062Z,986.00
2024-03-08T03:57:16.151Z,985.99
2024-03-08T03:58:16.038Z,985.97
2024-03-08T03:59:16.072Z,985.98
2024-03-08T04:00:16.020Z,985.97
2024-03-08T04:01:16.032Z,985.96
2024-03-08T04:02:15.986Z,985.95
2024-03-08T04:03:16.013Z,985.95
2024-03-08T04:04:16.026Z,985.93
2024-03-08T04:05:15.978Z,985.93
2024-03-08T04:06:16.009Z,985.92
2024-03-08T04:07:15.932Z,985.91
2024-03-08T04:08:15.924Z,985.91
2024-03-08T04:09:16.007Z,985.91
2024-03-08T04:10:15.946Z,985.91
2024-03-08T04:11:15.934Z,985.90
2024-03-08T04:12:15.925Z,985.91
2024-03-08T04:13:15.901Z,985.89
2024-03-08T04:14:15.857Z,985.88
2024-03-08T04:15:15.946Z,985.87
2024-03-08T04:16:15.853Z,985.87
2024-03-08T04:17:15.847Z,985.85
2024-03-08T04:18:15.883Z,985.84
2024-03-08T04:19:15.843Z,985.83
2024-03-08T04:20:16.463Z,985.83
2024-03-08T04:21:15.841Z,985.82
2024-03-08T04:22:15.803Z,985.82
2024-03-08T04:23:15.779Z,985.82
2024-03-08T04:24:15.794Z,985.81
2024-03-08T04:25:15.775Z,985.82
2024-03-08T04:26:18.708Z,985.82
2024-03-08T04:27:15.930Z,985.82
2024-03-08T04:28:15.742Z,985.81
2024-03-08T04:29:15.742Z,985.81
2024-03-08T04:30:15.834Z,985.81
2024-03-08T04:31:15.709Z,985.81
2024-03-08T04:32:15.702Z,985.79
2024-03-08T04:33:15.712Z,985.79
2024-03-08T04:34:15.676Z,985.78
2024-03-08T04:35:15.690Z,985.76
2024-03-08T04:36:15.715Z,985.75
2024-03-08T04:37:15.694Z,985.74
2024-03-08T04:38:15.637Z,985.73
2024-03-08T04:39:15.732Z,985.72
2024-03-08T04:40:15.603Z,985.71
2024-03-08T04:41:15.589Z,985.72
2024-03-08T04:42:15.693Z,985.71
2024-03-08T04:43:15.577Z,985.73
2024-03-08T04:44:15.564Z,985.72
2024-03-08T04:45:15.656Z,985.71
2024-03-08T04:46:15.546Z,985.68
2024-03-08T04:47:15.563Z,985.67
2024-03-08T04:48:15.676Z,985.69
2024-03-08T04:49:15.515Z,985.64
2024-03-08T04:50:15.512Z,985.63
2024-03-08T04:51:15.547Z,985.63
2024-03-08T04:52:15.496Z,985.63
2024-03-08T04:53:15.473Z,985.62
2024-03-08T04:54:15.541Z,985.60
2024-03-08T04:55:15.454Z,985.59
2024-03-08T04:56:15.448Z,985.59
2024-03-08T04:57:15.580Z,985.61
2024-03-08T04:58:15.437Z,985.59
2024-03-08T04:59:15.424Z,985.59
2024-03-08T05:00:15.466Z,985.61
2024-03-08T05:01:15.416Z,985.61
2024-03-08T05:02:15.401Z,985.61
2024-03-08T05:03:15.492Z,985.61
2024-03-08T05:04:15.384Z,985.62
2024-03-08T05:05:15.373Z,985.60
2024-03-08T05:06:15.395Z,985.60
2024-03-08T05:07:15.370Z,985.62
2024-03-08T05:08:15.314Z,985.62
2024-03-08T05:09:15.514Z,985.62
2024-03-08T05:10:15.293Z,985.60
2024-03-08T05:11:15.365Z,985.59
2024-03-08T05:12:15.368Z,985.59
2024-03-08T05:13:15.346Z,985.60
2024-03-08T05:14:15.273Z,985.62
2024-03-08T05:15:15.352Z,985.63
2024-03-08T05:16:15.233Z,985.62
2024-03-08T05:17:15.247Z,985.64
2024-03-08T05:18:15.300Z,985.64
2024-03-08T05:19:15.196Z,985.64
2024-03-08T05:20:15.207Z,985.64
2024-03-08T05:21:15.221Z,985.65
2024-03-08T05:22:15.184Z,985.63
2024-03-08T05:23:15.164Z,985.60
2024-03-08T05:24:15.468Z,985.58
2024-03-08T05:25:15.180Z,985.58
2024-03-08T05:26:15.144Z,985.54
2024-03-08T05:27:15.220Z,985.55
2024-03-08T05:28:15.166Z,985.56
2024-03-08T05:29:15.227Z,985.54
2024-03-08T05:30:15.226Z,985.57
2024-03-08T05:31:15.104Z,985.58
2024-03-08T05:32:15.117Z,985.58
2024-03-08T05:33:15.151Z,985.57
2024-03-08T05:34:15.046Z,985.57
2024-03-08T05:35:15.046Z,985.56
2024-03-08T05:36:15.081Z,985.57
2024-03-08T05:37:15.023Z,985.58
2024-03-08T05:38:15.049Z,985.58
2024-03-08T05:39:15.326Z,985.55
2024-03-08T05:40:17.928Z,985.54
2024-03-08T05:41:15.000Z,985.52
2024-03-08T05:42:15.041Z,985.50
2024-03-08T05:43:15.001Z,985.51
2024-03-08T05:44:14.975Z,985.52
2024-03-08T05:45:15.053Z,985.52
2024-03-08T05:46:14.938Z,985.51
2024-03-08T05:47:14.912Z,985.51
2024-03-08T05:48:15.028Z,985.52
2024-03-08T05:49:15.038Z,985.52
2024-03-08T05:50:14.886Z,985.54
2024-03-08T05:51:14.917Z,985.53
2024-03-08T05:52:14.906Z,985.53
2024-03-08T05:53:14.878Z,985.53
2024-03-08T05:54:17.338Z,985.52
2024-03-08T05:55:14.848Z,985.54
2024-03-08T05:56:14.828Z,985.54
2024-03-08T05:57:14.904Z,985.53
2024-03-08T05:58:14.837Z,985.52
2024-03-08T05:59:14.957Z,985.53
2024-03-08T06:00:14.865Z,985.52
2024-03-08T06:01:14.826Z,985.51
2024-03-08T06:02:14.758Z,985.52
2024-03-08T06:03:14.835Z,985.51
2024-03-08T06:04:14.742Z,985.50
2024-03-08T06:05:14.745Z,985.52
2024-03-08T06:06:14.851Z,985.52
2024-03-08T06:07:14.752Z,985.52
2024-03-08T06:08:14.724Z,985.52
2024-03-08T06:09:14.792Z,985.51
2024-03-08T06:10:14.731Z,985.50
2024-03-08T06:11:14.709Z,985.47
2024-03-08T06:12:14.711Z,985.46
2024-03-08T06:13:14.696Z,985.47
2024-03-08T06:14:14.659Z,985.47
2024-03-08T06:15:14.699Z,985.49
2024-03-08T06:16:14.625Z,985.48
2024-03-08T06:17:14.626Z,985.49
2024-03-08T06:18:14.726Z,985.49
2024-03-08T06:19:14.607Z,985.51
2024-03-08T06:20:15.176Z,985.50
2024-03-08T06:21:14.615Z,985.48
2024-03-08T06:22:14.571Z,985.49
2024-03-08T06:23:14.583Z,985.51
2024-03-08T06:24:14.617Z,985.48
2024-03-08T06:25:14.534Z,985.48
2024-03-08T06:26:14.527Z,985.46
2024-03-08T06:27:14.529Z,985.48
2024-03-08T06:28:14.538Z,985.46
2024-03-08T06:29:14.499Z,985.48
2024-03-08T06:30:14.604Z,985.50
2024-03-08T06:31:14.477Z,985.50
2024-03-08T06:32:14.456Z,985.52
2024-03-08T06:33:14.598Z,985.55
2024-03-08T06:34:14.453Z,985.54
2024-03-08T06:35:14.457Z,985.52
2024-03-08T06:36:14.515Z,985.52
2024-03-08T06:37:14.396Z,985.52
2024-03-08T06:38:14.402Z,985.51
2024-03-08T06:39:14.624Z,985.50
2024-03-08T06:40:14.377Z,985.53
2024-03-08T06:41:14.358Z,985.49
2024-03-08T06:42:14.392Z,985.48
2024-03-08T06:43:14.336Z,985.46
2024-03-08T06:44:14.355Z,985.46
2024-03-08T06:45:14.548Z,985.47
2024-03-08T06:46:14.315Z,985.44
2024-03-08T06:47:14.311Z,985.45
2024-03-08T06:48:14.410Z,985.45
2024-03-08T06:49:14.309Z,985.44
2024-03-08T06:50:14.273Z,985.46
2024-03-08T06:51:14.339Z,985.46
2024-03-08T06:52:14.241Z,985.45
2024-03-08T06:53:14.241Z,985.46
2024-03-08T06:54:14.396Z,985.47
2024-03-08T06:55:14.235Z,985.45
2024-03-08T06:56:14.219Z,985.48
2024-03-08T06:57:14.253Z,985.46
2024-03-08T06:58:14.192Z,985.46
2024-03-08T06:59:14.445Z,985.44
2024-03-08T07:00:14.400Z,985.46
2024-03-08T07:01:14.170Z,985.47
2024-03-08T07:02:14.137Z,985.44
2024-03-08T07:03:14.299Z,985.45
2024-03-08T07:04:14.155Z,985.43
2024-03-08T07:05:14.174Z,985.43
2024-03-08T07:06:14.242Z,985.42
2024-03-08T07:07:14.109Z,985.43
2024-03-08T07:08:14.091Z,985.41
2024-03-08T07:09:14.127Z,985.40
2024-03-08T07:10:14.056Z,985.37
2024-03-08T07:11:14.094Z,985.35
2024-03-08T07:12:14.056Z,985.34
2024-03-08T07:13:14.025Z,985.36
2024-03-08T07:14:14.041Z,985.33
2024-03-08T07:15:14.096Z,985.33
2024-03-08T07:16:14.016Z,985.33
2024-03-08T07:17:14.003Z,985.34
2024-03-08T07:18:14.071Z,985.32
2024-03-08T07:19:13.991Z,985.31
2024-03-08T07:20:13.959Z,985.28
2024-03-08T07:21:14.109Z,985.28
2024-03-08T07:22:13.962Z,985.30
2024-03-08T07:23:13.918Z,985.28
2024-03-08T07:24:13.963Z,985.28
2024-03-08T07:25:13.906Z,985.28
2024-03-08T07:26:13.898Z,985.27
2024-03-08T07:27:13.973Z,985.28
2024-03-08T07:28:14.161Z,985.27
2024-03-08T07:29:13.902Z,985.29
2024-03-08T07:30:13.889Z,985.27
2024-03-08T07:31:13.852Z,985.25
2024-03-08T07:32:13.906Z,985.23
2024-03-08T07:33:14.272Z,985.20
2024-03-08T07:34:13.857Z,985.19
2024-03-08T07:35:13.854Z,985.19
2024-03-08T07:36:13.909Z,985.19
2024-03-08T07:37:13.861Z,985.16
2024-03-08T07:38:13.773Z,985.19
2024-03-08T07:39:13.809Z,985.18
2024-03-08T07:40:13.790Z,985.16
2024-03-08T07:41:15.644Z,985.15
2024-03-08T07:42:13.756Z,985.10
2024-03-08T07:43:13.751Z,985.08
2024-03-08T07:44:13.712Z,985.09
2024-03-08T07:45:13.853Z,985.11
2024-03-08T07:46:13.693Z,985.08
2024-03-08T07:47:13.681Z,985.08
2024-03-08T07:48:13.907Z,985.08
2024-03-08T07:49:13.678Z,985.05
2024-03-08T07:50:13.674Z,985.07
2024-03-08T07:51:13.718Z,985.06
2024-03-08T07:52:13.657Z,985.02
2024-03-08T07:53:13.631Z,984.99
2024-03-08T07:54:13.664Z,985.00
2024-03-08T07:55:14.352Z,984.99
2024-03-08T07:56:13.613Z,985.00
2024-03-08T07:57:13.595Z,984.99
2024-03-08T07:58:13.627Z,984.98
2024-03-08T07:59:13.570Z,984.98
2024-03-08T08:00:13.584Z,984.97
2024-03-08T08:01:13.624Z,984.93
2024-03-08T08:02:13.623Z,984.96
2024-03-08T08:03:13.522Z,984.96
2024-03-08T08:04:13.685Z,984.94
2024-03-08T08:05:13.537Z,984.91
2024-03-08T08:06:13.498Z,984.92
2024-03-08T08:07:13.508Z,984.92
2024-03-08T08:08:13.480Z,984.90
2024-03-08T08:09:13.475Z,984.85
2024-03-08T08:10:13.560Z,984.84
2024-03-08T08:11:13.586Z,984.83
2024-03-08T08:12:13.430Z,984.79
2024-03-08T08:13:13.479Z,984.79
2024-03-08T08:14:13.452Z,984.77
2024-03-08T08:15:13.426Z,984.72
2024-03-08T08:16:13.459Z,984.73
2024-03-08T08:17:13.393Z,984.72
2024-03-08T08:18:13.369Z,984.70
2024-03-08T08:19:15.443Z,984.68
2024-03-08T08:20:13.375Z,984.67
2024-03-08T08:21:13.336Z,984.67
2024-03-08T08:22:13.367Z,984.64
2024-03-08T08:23:13.351Z,984.62
2024-03-08T08:24:13.348Z,984.60
2024-03-08T08:25:13.354Z,984.59
2024-03-08T08:26:13.291Z,984.57
2024-03-08T08:27:13.381Z,984.58
2024-03-08T08:28:13.291Z,984.56
2024-03-08T08:29:13.275Z,984.53
2024-03-08T08:30:13.278Z,984.52
2024-03-08T08:31:13.252Z,984.51
2024-03-08T08:32:13.243Z,984.51
2024-03-08T08:33:13.266Z,984.50
2024-03-08T08:34:13.246Z,984.48
2024-03-08T08:35:13.231Z,984.46
2024-03-08T08:36:13.206Z,984.41
2024-03-08T08:37:13.241Z,984.41
2024-03-08T08:38:13.207Z,984.40
2024-03-08T08:39:13.183Z,984.40
2024-03-08T08:40:13.200Z,984.29
2024-03-08T08:41:13.177Z,984.34
2024-03-08T08:42:13.122Z,984.34
2024-03-08T08:43:13.157Z,984.34
2024-03-08T08:44:16.354Z,984.34
2024-03-08T08:45:16.858Z,984.32
2024-03-08T08:46:13.143Z,984.32
2024-03-08T08:47:16.451Z,984.31
2024-03-08T08:48:13.161Z,984.29
2024-03-08T08:49:13.080Z,984.26
2024-03-08T08:50:13.267Z,984.20
2024-03-08T08:51:13.035Z,984.22
2024-03-08T08:52:17.022Z,984.22
2024-03-08T08:53:13.064Z,984.21
2024-03-08T08:54:14.612Z,984.14
2024-03-08T08:55:13.041Z,984.15
2024-03-08T08:56:13.326Z,984.18
2024-03-08T08:57:12.991Z,984.17
2024-03-08T08:58:13.011Z,984.17
2024-03-08T08:59:12.950Z,984.09
2024-03-08T09:00:12.981Z,984.13
2024-03-08T09:01:13.091Z,984.14
2024-03-08T09:02:16.042Z,984.12
2024-03-08T09:03:12.929Z,984.14
2024-03-08T09:04:12.994Z,984.13
2024-03-08T09:05:13.558Z,984.06
2024-03-08T09:06:12.882Z,984.09
2024-03-08T09:07:12.937Z,984.06
2024-03-08T09:08:12.924Z,983.99
2024-03-08T09:09:12.861Z,984.02
2024-03-08T09:10:17.576Z,983.98
2024-03-08T09:11:12.900Z,983.98
2024-03-08T09:12:12.850Z,983.95
2024-03-08T09:13:18.386Z,983.98
2024-03-08T09:14:12.931Z,983.96
2024-03-08T09:15:13.521Z,983.94
2024-03-08T09:16:12.898Z,983.92
2024-03-08T09:17:12.780Z,983.86
2024-03-08T09:18:12.820Z,983.89
2024-03-08T09:19:12.833Z,983.86
2024-03-08T09:20:12.759Z,983.82
2024-03-08T09:21:12.760Z,983.83
2024-03-08T09:22:12.779Z,983.79
2024-03-08T09:23:12.730Z,983.78
2024-03-08T09:24:12.725Z,983.80
2024-03-08T09:25:12.737Z,983.78
2024-03-08T09:26:16.359Z,983.79
2024-03-08T09:27:12.683Z,983.77
2024-03-08T09:28:12.688Z,983.73
2024-03-08T09:29:12.663Z,983.70
2024-03-08T09:30:12.681Z,983.72
2024-03-08T09:31:12.694Z,983.71
2024-03-08T09:32:12.640Z,983.75
2024-03-08T09:33:12.674Z,983.70
2024-03-08T09:34:17.415Z,983.69
2024-03-08T09:35:12.732Z,983.68
2024-03-08T09:36:12.606Z,983.69
2024-03-08T09:37:12.617Z,983.63
2024-03-08T09:38:12.564Z,983.63
2024-03-08T09:39:12.539Z,983.59
2024-03-08T09:40:12.635Z,983.59
2024-03-08T09:41:12.521Z,983.58
2024-03-08T09:42:12.540Z,983.57
2024-03-08T09:43:12.556Z,983.58
2024-03-08T09:44:12.502Z,983.55
2024-03-08T09:45:12.488Z,983.54
2024-03-08T09:46:12.557Z,983.52
2024-03-08T09:47:12.454Z,983.50
2024-03-08T09:48:12.491Z,983.53
2024-03-08T09:49:12.442Z,983.54
2024-03-08T09:50:12.429Z,983.52
2024-03-08T09:51:12.428Z,983.50
2024-03-08T09:52:12.457Z,983.49
2024-03-08T09:53:12.418Z,983.46
2024-03-08T09:54:17.345Z,983.47
2024-03-08T09:55:12.464Z,983.48
2024-03-08T09:56:12.399Z,983.45
2024-03-08T09:57:12.362Z,983.46
2024-03-08T09:58:12.455Z,983.43
2024-03-08T09:59:12.369Z,983.43
2024-03-08T10:00:12.350Z,983.39
2024-03-08T10:01:12.420Z,983.40
2024-03-08T10:02:12.429Z,983.36
2024-03-08T10:03:14.194Z,983.38
2024-03-08T10:04:12.355Z,983.35
2024-03-08T10:05:12.286Z,983.33
2024-03-08T10:06:12.299Z,983.31
2024-03-08T10:07:12.321Z,983.29
2024-03-08T10:08:12.269Z,983.37
2024-03-08T10:09:12.252Z,983.34
2024-03-08T10:10:12.268Z,983.29
2024-03-08T10:11:12.302Z,983.25
2024-03-08T10:12:12.208Z,983.27
2024-03-08T10:13:12.231Z,983.26
2024-03-08T10:14:12.226Z,983.19
2024-03-08T10:15:12.190Z,983.19
2024-03-08T10:16:12.994Z,983.15
2024-03-08T10:17:12.176Z,983.16
2024-03-08T10:18:12.183Z,983.10
2024-03-08T10:19:12.167Z,983.15
2024-03-08T10:20:12.133Z,983.12
2024-03-08T10:21:12.143Z,983.12
2024-03-08T10:22:12.155Z,983.10
2024-03-08T10:23:12.490Z,983.10
2024-03-08T10:24:12.113Z,983.09
2024-03-08T10:25:12.103Z,983.13
2024-03-08T10:26:12.128Z,983.12
2024-03-08T10:27:12.091Z,983.10
2024-03-08T10:28:12.080Z,983.10
2024-03-08T10:29:12.041Z,983.07
2024-03-08T10:30:12.030Z,983.13
2024-03-08T10:31:12.265Z,983.11
2024-03-08T10:32:12.075Z,983.09
2024-03-08T10:33:12.111Z,983.10
2024-03-08T10:34:12.157Z,983.07
2024-03-08T10:35:11.974Z,983.06
2024-03-08T10:36:12.044Z,983.05
2024-03-08T10:37:12.072Z,983.02
2024-03-08T10:38:11.951Z,983.02
2024-03-08T10:39:11.943Z,983.00
2024-03-08T10:40:12.551Z,983.01
2024-03-08T10:41:11.938Z,982.97
2024-03-08T10:42:11.910Z,982.98
2024-03-08T10:43:18.468Z,982.99
2024-03-08T10:44:11.991Z,982.97
2024-03-08T10:45:11.882Z,982.99
2024-03-08T10:46:12.014Z,982.97
2024-03-08T10:47:11.871Z,982.95
2024-03-08T10:48:11.899Z,982.98
2024-03-08T10:49:11.938Z,983.02
2024-03-08T10:50:11.841Z,982.94
2024-03-08T10:51:11.861Z,982.95
2024-03-08T10:52:11.819Z,982.94
2024-03-08T10:53:11.789Z,982.96
2024-03-08T10:54:11.791Z,982.95
2024-03-08T10:55:11.840Z,982.93
2024-03-08T10:56:11.994Z,982.94
2024-03-08T10:57:11.777Z,982.98
2024-03-08T10:58:11.751Z,982.94
2024-03-08T10:59:11.731Z,982.86
2024-03-08T11:00:11.736Z,982.88
2024-03-08T11:01:11.830Z,982.89
2024-03-08T11:02:11.774Z,982.89
2024-03-08T11:03:11.683Z,982.86
2024-03-08T11:04:11.736Z,982.84
2024-03-08T11:05:11.701Z,982.85
2024-03-08T11:06:11.697Z,982.81
2024-03-08T11:07:11.672Z,982.79
2024-03-08T11:08:11.642Z,982.79
2024-03-08T11:09:11.626Z,982.82
2024-03-08T11:10:11.637Z,982.79
2024-03-08T11:11:11.681Z,982.76
2024-03-08T11:12:11.588Z,982.73
2024-03-08T11:13:11.601Z,982.71
2024-03-08T11:14:11.583Z,982.68
2024-03-08T11:15:11.587Z,982.68
2024-03-08T11:16:11.682Z,982.66
2024-03-08T11:17:11.542Z,982.65
2024-03-08T11:18:11.726Z,982.64
2024-03-08T11:19:11.578Z,982.61
2024-03-08T11:20:11.546Z,982.62
2024-03-08T11:21:11.516Z,982.57
2024-03-08T11:22:11.507Z,982.52
2024-03-08T11:23:11.970Z,982.51
2024-03-08T11:24:11.464Z,982.45
2024-03-08T11:25:11.785Z,982.44
2024-03-08T11:26:11.479Z,982.47
2024-03-08T11:27:11.534Z,982.47
2024-03-08T11:28:11.433Z,982.45
2024-03-08T11:29:11.412Z,982.42
2024-03-08T11:30:13.797Z,982.43
2024-03-08T11:31:11.456Z,982.44
2024-03-08T11:32:11.399Z,982.37
2024-03-08T11:33:11.398Z,982.36
2024-03-08T11:34:11.357Z,982.37
2024-03-08T11:35:11.368Z,982.33
2024-03-08T11:36:11.383Z,982.35
2024-03-08T11:37:11.351Z,982.27
2024-03-08T11:38:11.339Z,982.28
2024-03-08T11:39:11.314Z,982.25
2024-03-08T11:40:11.299Z,982.22
2024-03-08T11:41:11.374Z,982.20
2024-03-08T11:42:11.313Z,982.19
2024-03-08T11:43:11.269Z,982.19
2024-03-08T11:44:11.271Z,982.18
2024-03-08T11:45:11.273Z,982.18
2024-03-08T11:46:11.232Z,982.12
2024-03-08T11:47:11.274Z,982.14
2024-03-08T11:48:11.297Z,982.15
2024-03-08T11:49:11.205Z,982.08
2024-03-08T11:50:11.194Z,982.10
2024-03-08T11:51:11.198Z,982.10
2024-03-08T11:52:11.202Z,982.08
2024-03-08T11:53:11.183Z,982.08
2024-03-08T11:54:11.169Z,982.01
2024-03-08T11:55:11.141Z,981.99
2024-03-08T11:56:11.266Z,981.98
2024-03-08T11:57:11.194Z,982.04
2024-03-08T11:58:11.128Z,981.99
2024-03-08T11:59:11.100Z,981.96
2024-03-08T12:00:11.105Z,981.88
2024-03-08T12:01:11.090Z,981.91
2024-03-08T12:02:11.151Z,981.89
2024-03-08T12:03:11.106Z,981.86
2024-03-08T12:04:11.079Z,981.85
2024-03-08T12:05:11.041Z,981.85
2024-03-08T12:06:11.045Z,981.81
2024-03-08T12:07:11.041Z,981.81
2024-03-08T12:08:11.029Z,981.81
2024-03-08T12:09:11.011Z,981.77
2024-03-08T12:10:11.016Z,981.75
2024-03-08T12:11:11.148Z,981.76
2024-03-08T12:12:10.995Z,981.75
2024-03-08T12:13:11.005Z,981.66
2024-03-08T12:14:10.961Z,981.66
2024-03-08T12:15:10.932Z,981.66
2024-03-08T12:16:10.943Z,981.60
2024-03-08T12:17:12.714Z,981.61
2024-03-08T12:18:10.897Z,981.60
2024-03-08T12:19:10.925Z,981.59
2024-03-08T12:20:10.889Z,981.58
2024-03-08T12:21:10.906Z,981.56
2024-03-08T12:22:10.876Z,981.53
2024-03-08T12:23:10.882Z,981.56
2024-03-08T12:24:10.910Z,981.51
2024-03-08T12:25:10.834Z,981.46
2024-03-08T12:26:10.869Z,981.47
2024-03-08T12:27:10.858Z,981.45
2024-03-08T12:28:10.826Z,981.45